sensor_id;sensor_type;location;lat;lon;timestamp;P1;durP1;ratioP1;P2;durP2;ratioP2
2784;SDS011;57944;48.722;9.316;2023-08-31T00:01:00;6.13;;;4.27;;
2784;SDS011;57944;48.722;9.316;2023-08-31T00:03:31;4.97;;;3.50;;
2784;SDS011;57944;48.722;9.316;2023-08-31T00:06:02;5.50;;;3.63;;
2784;SDS011;57944;48.722;9.316;2023-08-31T00:08:34;6.07;;;4.30;;
2784;SDS011;57944;48.722;9.316;2023-08-31T00:11:05;5.43;;;4.20;;
2784;SDS011;57944;48.722;9.316;2023-08-31T00:13:36;8.00;;;4.37;;
2784;SDS011;57944;48.722;9.316;2023-08-31T00:16:09;9.20;;;4.50;;
2784;SDS011;57944;48.722;9.316;2023-08-31T00:18:40;7.53;;;4.70;;
2784;SDS011;57944;48.722;9.316;2023-08-31T00:21:11;7.20;;;4.93;;
2784;SDS011;57944;48.722;9.316;2023-08-31T00:23:42;4.90;;;3.43;;
2784;SDS011;57944;48.722;9.316;2023-08-31T00:26:12;6.57;;;4.13;;
2784;SDS011;57944;48.722;9.316;2023-08-31T00:28:46;8.73;;;4.30;;
2784;SDS011;57944;48.722;9.316;2023-08-31T00:31:19;5.00;;;3.67;;
2784;SDS011;57944;48.722;9.316;2023-08-31T00:33:51;6.00;;;3.93;;
2784;SDS011;57944;48.722;9.316;2023-08-31T00:36:21;8.73;;;3.70;;
2784;SDS011;57944;48.722;9.316;2023-08-31T00:38:52;8.03;;;5.27;;
2784;SDS011;57944;48.722;9.316;2023-08-31T00:41:23;6.60;;;5.00;;
2784;SDS011;57944;48.722;9.316;2023-08-31T00:43:53;12.00;;;4.33;;
2784;SDS011;57944;48.722;9.316;2023-08-31T00:46:27;6.70;;;4.10;;
2784;SDS011;57944;48.722;9.316;2023-08-31T00:48:59;7.70;;;4.50;;
2784;SDS011;57944;48.722;9.316;2023-08-31T00:51:30;12.13;;;4.73;;
2784;SDS011;57944;48.722;9.316;2023-08-31T00:54:03;15.80;;;4.90;;
2784;SDS011;57944;48.722;9.316;2023-08-31T00:56:34;6.63;;;4.70;;
2784;SDS011;57944;48.722;9.316;2023-08-31T00:59:07;8.13;;;5.27;;
2784;SDS011;57944;48.722;9.316;2023-08-31T01:01:42;6.23;;;4.53;;
2784;SDS011;57944;48.722;9.316;2023-08-31T01:04:21;12.17;;;5.67;;
2784;SDS011;57944;48.722;9.316;2023-08-31T01:07:00;6.00;;;4.50;;
2784;SDS011;57944;48.722;9.316;2023-08-31T01:09:41;9.73;;;5.27;;
2784;SDS011;57944;48.722;9.316;2023-08-31T01:12:20;6.57;;;3.97;;
2784;SDS011;57944;48.722;9.316;2023-08-31T01:15:03;9.90;;;5.33;;
2784;SDS011;57944;48.722;9.316;2023-08-31T01:17:39;6.47;;;4.20;;
2784;SDS011;57944;48.722;9.316;2023-08-31T01:20:14;6.93;;;4.07;;
2784;SDS011;57944;48.722;9.316;2023-08-31T01:22:51;7.47;;;4.10;;
2784;SDS011;57944;48.722;9.316;2023-08-31T01:25:32;6.53;;;4.67;;
2784;SDS011;57944;48.722;9.316;2023-08-31T01:28:04;6.07;;;4.17;;
2784;SDS011;57944;48.722;9.316;2023-08-31T01:30:36;8.57;;;4.10;;
2784;SDS011;57944;48.722;9.316;2023-08-31T01:33:07;9.70;;;5.00;;
2784;SDS011;57944;48.722;9.316;2023-08-31T01:35:42;6.90;;;4.90;;
2784;SDS011;57944;48.722;9.316;2023-08-31T01:38:17;7.90;;;4.90;;
2784;SDS011;57944;48.722;9.316;2023-08-31T01:40:56;10.10;;;5.90;;
2784;SDS011;57944;48.722;9.316;2023-08-31T01:43:30;10.77;;;4.93;;
2784;SDS011;57944;48.722;9.316;2023-08-31T01:46:02;7.30;;;5.70;;
2784;SDS011;57944;48.722;9.316;2023-08-31T01:48:37;6.63;;;4.37;;
2784;SDS011;57944;48.722;9.316;2023-08-31T01:51:10;11.50;;;5.33;;
2784;SDS011;57944;48.722;9.316;2023-08-31T01:53:41;8.90;;;5.53;;
2784;SDS011;57944;48.722;9.316;2023-08-31T01:56:14;7.80;;;5.10;;
2784;SDS011;57944;48.722;9.316;2023-08-31T01:58:45;16.60;;;5.70;;
2784;SDS011;57944;48.722;9.316;2023-08-31T02:01:16;9.70;;;6.13;;
2784;SDS011;57944;48.722;9.316;2023-08-31T02:03:46;8.90;;;5.70;;
2784;SDS011;57944;48.722;9.316;2023-08-31T02:06:17;8.60;;;5.27;;
2784;SDS011;57944;48.722;9.316;2023-08-31T02:08:48;11.83;;;5.80;;
2784;SDS011;57944;48.722;9.316;2023-08-31T02:11:21;9.40;;;5.10;;
2784;SDS011;57944;48.722;9.316;2023-08-31T02:13:54;6.97;;;4.63;;
2784;SDS011;57944;48.722;9.316;2023-08-31T02:16:25;7.47;;;5.13;;
2784;SDS011;57944;48.722;9.316;2023-08-31T02:18:55;9.50;;;4.80;;
2784;SDS011;57944;48.722;9.316;2023-08-31T02:21:26;8.83;;;5.87;;
2784;SDS011;57944;48.722;9.316;2023-08-31T02:23:57;9.23;;;5.07;;
2784;SDS011;57944;48.722;9.316;2023-08-31T02:26:30;8.00;;;5.13;;
2784;SDS011;57944;48.722;9.316;2023-08-31T02:29:00;9.90;;;5.80;;
2784;SDS011;57944;48.722;9.316;2023-08-31T02:31:32;8.53;;;4.97;;
2784;SDS011;57944;48.722;9.316;2023-08-31T02:34:04;7.63;;;4.93;;
2784;SDS011;57944;48.722;9.316;2023-08-31T02:36:34;8.43;;;5.67;;
2784;SDS011;57944;48.722;9.316;2023-08-31T02:39:05;7.00;;;4.97;;
2784;SDS011;57944;48.722;9.316;2023-08-31T02:41:38;9.20;;;6.07;;
2784;SDS011;57944;48.722;9.316;2023-08-31T02:44:09;7.30;;;4.80;;
2784;SDS011;57944;48.722;9.316;2023-08-31T02:46:40;8.23;;;5.00;;
2784;SDS011;57944;48.722;9.316;2023-08-31T02:49:11;8.80;;;5.40;;
2784;SDS011;57944;48.722;9.316;2023-08-31T02:51:41;7.30;;;4.20;;
2784;SDS011;57944;48.722;9.316;2023-08-31T02:54:12;8.73;;;5.00;;
2784;SDS011;57944;48.722;9.316;2023-08-31T02:56:45;7.10;;;4.73;;
2784;SDS011;57944;48.722;9.316;2023-08-31T02:59:16;8.10;;;4.80;;
2784;SDS011;57944;48.722;9.316;2023-08-31T03:01:46;7.83;;;4.90;;
2784;SDS011;57944;48.722;9.316;2023-08-31T03:04:17;10.23;;;5.23;;
2784;SDS011;57944;48.722;9.316;2023-08-31T03:06:48;8.50;;;4.70;;
2784;SDS011;57944;48.722;9.316;2023-08-31T03:09:19;8.13;;;5.90;;
2784;SDS011;57944;48.722;9.316;2023-08-31T03:11:52;9.97;;;5.13;;
2784;SDS011;57944;48.722;9.316;2023-08-31T03:14:22;7.87;;;5.37;;
2784;SDS011;57944;48.722;9.316;2023-08-31T03:16:55;9.00;;;5.40;;
2784;SDS011;57944;48.722;9.316;2023-08-31T03:19:28;9.30;;;5.60;;
2784;SDS011;57944;48.722;9.316;2023-08-31T03:21:58;8.47;;;4.70;;
2784;SDS011;57944;48.722;9.316;2023-08-31T03:24:29;7.80;;;5.50;;
2784;SDS011;57944;48.722;9.316;2023-08-31T03:27:03;7.37;;;5.40;;
2784;SDS011;57944;48.722;9.316;2023-08-31T03:29:34;9.77;;;6.10;;
2784;SDS011;57944;48.722;9.316;2023-08-31T03:32:06;9.20;;;5.80;;
2784;SDS011;57944;48.722;9.316;2023-08-31T03:34:36;10.00;;;6.20;;
2784;SDS011;57944;48.722;9.316;2023-08-31T03:37:07;7.37;;;5.50;;
2784;SDS011;57944;48.722;9.316;2023-08-31T03:39:38;11.17;;;6.00;;
2784;SDS011;57944;48.722;9.316;2023-08-31T03:42:12;17.10;;;5.63;;
2784;SDS011;57944;48.722;9.316;2023-08-31T03:44:43;8.10;;;5.80;;
2784;SDS011;57944;48.722;9.316;2023-08-31T03:47:15;9.90;;;6.30;;
2784;SDS011;57944;48.722;9.316;2023-08-31T03:49:46;15.70;;;6.60;;
2784;SDS011;57944;48.722;9.316;2023-08-31T03:52:17;10.43;;;6.10;;
2784;SDS011;57944;48.722;9.316;2023-08-31T03:54:47;11.83;;;6.27;;
2784;SDS011;57944;48.722;9.316;2023-08-31T03:57:22;9.77;;;5.50;;
2784;SDS011;57944;48.722;9.316;2023-08-31T03:59:58;12.97;;;6.93;;
2784;SDS011;57944;48.722;9.316;2023-08-31T04:02:41;8.77;;;5.83;;
2784;SDS011;57944;48.722;9.316;2023-08-31T04:05:17;7.77;;;5.30;;
2784;SDS011;57944;48.722;9.316;2023-08-31T04:07:48;12.07;;;6.27;;
2784;SDS011;57944;48.722;9.316;2023-08-31T04:10:19;15.53;;;7.60;;
2784;SDS011;57944;48.722;9.316;2023-08-31T04:12:54;10.90;;;6.40;;
2784;SDS011;57944;48.722;9.316;2023-08-31T04:15:27;13.77;;;7.70;;
2784;SDS011;57944;48.722;9.316;2023-08-31T04:17:57;13.47;;;7.20;;
2784;SDS011;57944;48.722;9.316;2023-08-31T04:20:28;13.87;;;7.17;;
2784;SDS011;57944;48.722;9.316;2023-08-31T04:22:59;9.90;;;6.10;;
2784;SDS011;57944;48.722;9.316;2023-08-31T04:25:29;12.00;;;6.97;;
2784;SDS011;57944;48.722;9.316;2023-08-31T04:28:03;11.93;;;6.37;;
2784;SDS011;57944;48.722;9.316;2023-08-31T04:30:33;10.70;;;6.80;;
2784;SDS011;57944;48.722;9.316;2023-08-31T04:33:05;12.47;;;6.50;;
2784;SDS011;57944;48.722;9.316;2023-08-31T04:35:37;10.60;;;6.77;;
2784;SDS011;57944;48.722;9.316;2023-08-31T04:38:07;12.33;;;6.90;;
2784;SDS011;57944;48.722;9.316;2023-08-31T04:40:38;9.40;;;7.10;;
2784;SDS011;57944;48.722;9.316;2023-08-31T04:43:13;9.57;;;7.00;;
2784;SDS011;57944;48.722;9.316;2023-08-31T04:45:43;9.37;;;6.20;;
2784;SDS011;57944;48.722;9.316;2023-08-31T04:48:14;9.80;;;7.23;;
2784;SDS011;57944;48.722;9.316;2023-08-31T04:50:44;12.47;;;7.93;;
2784;SDS011;57944;48.722;9.316;2023-08-31T04:53:15;10.47;;;7.03;;
2784;SDS011;57944;48.722;9.316;2023-08-31T04:55:46;10.47;;;6.40;;
2784;SDS011;57944;48.722;9.316;2023-08-31T04:58:19;18.50;;;8.17;;
2784;SDS011;57944;48.722;9.316;2023-08-31T05:00:51;12.20;;;7.40;;
2784;SDS011;57944;48.722;9.316;2023-08-31T05:03:21;12.30;;;7.67;;
2784;SDS011;57944;48.722;9.316;2023-08-31T05:05:52;16.53;;;7.80;;
2784;SDS011;57944;48.722;9.316;2023-08-31T05:08:23;9.37;;;7.33;;
2784;SDS011;57944;48.722;9.316;2023-08-31T05:10:53;11.20;;;8.60;;
2784;SDS011;57944;48.722;9.316;2023-08-31T05:13:26;16.57;;;9.23;;
2784;SDS011;57944;48.722;9.316;2023-08-31T05:15:57;14.03;;;8.33;;
2784;SDS011;57944;48.722;9.316;2023-08-31T05:18:29;23.63;;;8.73;;
2784;SDS011;57944;48.722;9.316;2023-08-31T05:20:59;15.03;;;8.30;;
2784;SDS011;57944;48.722;9.316;2023-08-31T05:23:30;10.13;;;7.60;;
2784;SDS011;57944;48.722;9.316;2023-08-31T05:26:01;13.40;;;8.17;;
2784;SDS011;57944;48.722;9.316;2023-08-31T05:28:34;12.50;;;8.37;;
2784;SDS011;57944;48.722;9.316;2023-08-31T05:31:05;14.50;;;7.27;;
2784;SDS011;57944;48.722;9.316;2023-08-31T05:33:36;21.00;;;7.47;;
2784;SDS011;57944;48.722;9.316;2023-08-31T05:36:06;13.47;;;7.00;;
2784;SDS011;57944;48.722;9.316;2023-08-31T05:38:37;14.03;;;9.67;;
2784;SDS011;57944;48.722;9.316;2023-08-31T05:41:08;14.00;;;7.23;;
2784;SDS011;57944;48.722;9.316;2023-08-31T05:43:41;9.83;;;6.50;;
2784;SDS011;57944;48.722;9.316;2023-08-31T05:46:12;12.90;;;7.00;;
2784;SDS011;57944;48.722;9.316;2023-08-31T05:48:43;10.73;;;7.57;;
2784;SDS011;57944;48.722;9.316;2023-08-31T05:51:14;12.03;;;7.10;;
2784;SDS011;57944;48.722;9.316;2023-08-31T05:53:44;18.80;;;7.60;;
2784;SDS011;57944;48.722;9.316;2023-08-31T05:56:15;11.53;;;7.20;;
2784;SDS011;57944;48.722;9.316;2023-08-31T05:58:48;16.13;;;7.60;;
2784;SDS011;57944;48.722;9.316;2023-08-31T06:01:21;13.53;;;9.20;;
2784;SDS011;57944;48.722;9.316;2023-08-31T06:03:52;11.33;;;7.47;;
2784;SDS011;57944;48.722;9.316;2023-08-31T06:06:22;12.30;;;7.50;;
2784;SDS011;57944;48.722;9.316;2023-08-31T06:08:53;9.93;;;6.47;;
2784;SDS011;57944;48.722;9.316;2023-08-31T06:11:24;10.53;;;7.30;;
2784;SDS011;57944;48.722;9.316;2023-08-31T06:13:57;8.93;;;6.20;;
2784;SDS011;57944;48.722;9.316;2023-08-31T06:16:28;9.63;;;6.93;;
2784;SDS011;57944;48.722;9.316;2023-08-31T06:18:59;11.00;;;7.20;;
2784;SDS011;57944;48.722;9.316;2023-08-31T06:21:30;18.07;;;6.23;;
2784;SDS011;57944;48.722;9.316;2023-08-31T06:24:01;14.13;;;6.40;;
2784;SDS011;57944;48.722;9.316;2023-08-31T06:26:33;10.77;;;6.70;;
2784;SDS011;57944;48.722;9.316;2023-08-31T06:29:06;19.97;;;8.47;;
2784;SDS011;57944;48.722;9.316;2023-08-31T06:31:38;11.53;;;5.23;;
2784;SDS011;57944;48.722;9.316;2023-08-31T06:34:09;10.10;;;5.57;;
2784;SDS011;57944;48.722;9.316;2023-08-31T06:36:39;11.63;;;7.57;;
2784;SDS011;57944;48.722;9.316;2023-08-31T06:39:10;10.43;;;6.97;;
2784;SDS011;57944;48.722;9.316;2023-08-31T06:41:42;8.47;;;6.50;;
2784;SDS011;57944;48.722;9.316;2023-08-31T06:44:16;12.07;;;5.13;;
2784;SDS011;57944;48.722;9.316;2023-08-31T06:46:46;10.00;;;5.60;;
2784;SDS011;57944;48.722;9.316;2023-08-31T06:49:17;10.20;;;4.63;;
2784;SDS011;57944;48.722;9.316;2023-08-31T06:51:48;7.47;;;5.30;;
2784;SDS011;57944;48.722;9.316;2023-08-31T06:54:20;10.73;;;5.00;;
2784;SDS011;57944;48.722;9.316;2023-08-31T06:56:51;7.60;;;5.10;;
2784;SDS011;57944;48.722;9.316;2023-08-31T06:59:24;9.43;;;5.17;;
2784;SDS011;57944;48.722;9.316;2023-08-31T07:01:54;7.90;;;4.90;;
2784;SDS011;57944;48.722;9.316;2023-08-31T07:04:26;6.00;;;3.47;;
2784;SDS011;57944;48.722;9.316;2023-08-31T07:06:56;6.33;;;4.07;;
2784;SDS011;57944;48.722;9.316;2023-08-31T07:09:27;5.63;;;3.70;;
2784;SDS011;57944;48.722;9.316;2023-08-31T07:11:57;7.33;;;4.07;;
2784;SDS011;57944;48.722;9.316;2023-08-31T07:14:31;10.63;;;4.40;;
2784;SDS011;57944;48.722;9.316;2023-08-31T07:17:02;9.03;;;3.80;;
2784;SDS011;57944;48.722;9.316;2023-08-31T07:19:34;5.63;;;4.03;;
2784;SDS011;57944;48.722;9.316;2023-08-31T07:22:06;8.00;;;3.70;;
2784;SDS011;57944;48.722;9.316;2023-08-31T07:24:36;4.90;;;3.10;;
2784;SDS011;57944;48.722;9.316;2023-08-31T07:27:07;5.60;;;3.17;;
2784;SDS011;57944;48.722;9.316;2023-08-31T07:29:40;4.87;;;2.83;;
2784;SDS011;57944;48.722;9.316;2023-08-31T07:32:11;9.13;;;4.50;;
2784;SDS011;57944;48.722;9.316;2023-08-31T07:34:41;5.17;;;3.30;;
2784;SDS011;57944;48.722;9.316;2023-08-31T07:37:12;5.87;;;3.40;;
2784;SDS011;57944;48.722;9.316;2023-08-31T07:39:42;4.70;;;2.90;;
2784;SDS011;57944;48.722;9.316;2023-08-31T07:42:13;4.93;;;2.50;;
2784;SDS011;57944;48.722;9.316;2023-08-31T07:44:46;6.07;;;3.10;;
2784;SDS011;57944;48.722;9.316;2023-08-31T07:47:16;9.93;;;3.57;;
2784;SDS011;57944;48.722;9.316;2023-08-31T07:49:47;8.57;;;5.00;;
2784;SDS011;57944;48.722;9.316;2023-08-31T07:52:18;8.17;;;3.40;;
2784;SDS011;57944;48.722;9.316;2023-08-31T07:54:49;4.93;;;2.50;;
2784;SDS011;57944;48.722;9.316;2023-08-31T07:57:20;5.00;;;2.67;;
2784;SDS011;57944;48.722;9.316;2023-08-31T07:59:53;5.30;;;2.70;;
2784;SDS011;57944;48.722;9.316;2023-08-31T08:02:24;5.87;;;3.50;;
2784;SDS011;57944;48.722;9.316;2023-08-31T08:04:54;4.70;;;2.80;;
2784;SDS011;57944;48.722;9.316;2023-08-31T08:07:25;7.67;;;3.67;;
2784;SDS011;57944;48.722;9.316;2023-08-31T08:09:56;5.23;;;2.63;;
2784;SDS011;57944;48.722;9.316;2023-08-31T08:12:27;7.90;;;2.60;;
2784;SDS011;57944;48.722;9.316;2023-08-31T08:15:08;5.73;;;3.67;;
2784;SDS011;57944;48.722;9.316;2023-08-31T08:17:39;7.63;;;2.60;;
2784;SDS011;57944;48.722;9.316;2023-08-31T08:20:10;5.87;;;3.73;;
2784;SDS011;57944;48.722;9.316;2023-08-31T08:22:41;5.77;;;3.30;;
2784;SDS011;57944;48.722;9.316;2023-08-31T08:25:12;6.10;;;2.70;;
2784;SDS011;57944;48.722;9.316;2023-08-31T08:27:42;6.53;;;2.60;;
2784;SDS011;57944;48.722;9.316;2023-08-31T08:30:15;5.33;;;2.80;;
2784;SDS011;57944;48.722;9.316;2023-08-31T08:32:46;4.40;;;2.67;;
2784;SDS011;57944;48.722;9.316;2023-08-31T08:35:17;6.87;;;3.40;;
2784;SDS011;57944;48.722;9.316;2023-08-31T08:37:47;6.60;;;2.60;;
2784;SDS011;57944;48.722;9.316;2023-08-31T08:40:18;7.80;;;2.57;;
2784;SDS011;57944;48.722;9.316;2023-08-31T08:42:49;6.70;;;2.90;;
2784;SDS011;57944;48.722;9.316;2023-08-31T08:45:25;4.47;;;2.70;;
2784;SDS011;57944;48.722;9.316;2023-08-31T08:48:00;5.00;;;2.73;;
2784;SDS011;57944;48.722;9.316;2023-08-31T08:50:31;5.57;;;2.30;;
2784;SDS011;57944;48.722;9.316;2023-08-31T08:53:04;5.83;;;2.67;;
2784;SDS011;57944;48.722;9.316;2023-08-31T08:55:35;4.93;;;2.93;;
2784;SDS011;57944;48.722;9.316;2023-08-31T08:58:06;6.17;;;2.60;;
2784;SDS011;57944;48.722;9.316;2023-08-31T09:00:39;7.93;;;2.87;;
2784;SDS011;57944;48.722;9.316;2023-08-31T09:03:11;4.30;;;2.83;;
2784;SDS011;57944;48.722;9.316;2023-08-31T09:05:42;5.53;;;2.63;;
2784;SDS011;57944;48.722;9.316;2023-08-31T09:08:12;5.37;;;2.73;;
2784;SDS011;57944;48.722;9.316;2023-08-31T09:10:43;6.03;;;3.23;;
2784;SDS011;57944;48.722;9.316;2023-08-31T09:13:14;7.43;;;2.90;;
2784;SDS011;57944;48.722;9.316;2023-08-31T09:15:49;5.30;;;3.00;;
2784;SDS011;57944;48.722;9.316;2023-08-31T09:18:22;5.03;;;2.70;;
2784;SDS011;57944;48.722;9.316;2023-08-31T09:20:55;5.90;;;2.83;;
2784;SDS011;57944;48.722;9.316;2023-08-31T09:23:26;7.03;;;3.07;;
2784;SDS011;57944;48.722;9.316;2023-08-31T09:25:57;6.00;;;2.77;;
2784;SDS011;57944;48.722;9.316;2023-08-31T09:28:28;12.40;;;3.13;;
2784;SDS011;57944;48.722;9.316;2023-08-31T09:31:06;8.30;;;3.60;;
2784;SDS011;57944;48.722;9.316;2023-08-31T09:33:37;4.60;;;2.67;;
2784;SDS011;57944;48.722;9.316;2023-08-31T09:36:19;5.53;;;2.60;;
2784;SDS011;57944;48.722;9.316;2023-08-31T09:38:50;5.60;;;2.80;;
2784;SDS011;57944;48.722;9.316;2023-08-31T09:41:21;6.03;;;3.23;;
2784;SDS011;57944;48.722;9.316;2023-08-31T09:43:51;6.80;;;2.60;;
2784;SDS011;57944;48.722;9.316;2023-08-31T09:46:25;7.00;;;3.07;;
2784;SDS011;57944;48.722;9.316;2023-08-31T09:48:55;10.40;;;2.97;;
2784;SDS011;57944;48.722;9.316;2023-08-31T09:51:27;5.80;;;2.73;;
2784;SDS011;57944;48.722;9.316;2023-08-31T09:53:58;6.37;;;2.77;;
2784;SDS011;57944;48.722;9.316;2023-08-31T09:56:33;5.27;;;3.30;;
2784;SDS011;57944;48.722;9.316;2023-08-31T09:59:04;9.10;;;3.03;;
2784;SDS011;57944;48.722;9.316;2023-08-31T10:01:37;17.03;;;3.30;;
2784;SDS011;57944;48.722;9.316;2023-08-31T10:04:09;5.53;;;3.13;;
2784;SDS011;57944;48.722;9.316;2023-08-31T10:06:40;8.33;;;2.53;;
2784;SDS011;57944;48.722;9.316;2023-08-31T10:09:12;9.40;;;2.87;;
2784;SDS011;57944;48.722;9.316;2023-08-31T10:11:44;3.93;;;2.20;;
2784;SDS011;57944;48.722;9.316;2023-08-31T10:14:15;10.07;;;3.07;;
2784;SDS011;57944;48.722;9.316;2023-08-31T10:16:50;5.33;;;3.00;;
2784;SDS011;57944;48.722;9.316;2023-08-31T10:19:21;11.37;;;2.87;;
2784;SDS011;57944;48.722;9.316;2023-08-31T10:21:52;6.33;;;2.87;;
2784;SDS011;57944;48.722;9.316;2023-08-31T10:27:35;6.97;;;3.00;;
2784;SDS011;57944;48.722;9.316;2023-08-31T10:30:24;5.90;;;2.40;;
2784;SDS011;57944;48.722;9.316;2023-08-31T10:33:05;6.20;;;2.90;;
2784;SDS011;57944;48.722;9.316;2023-08-31T10:35:51;7.63;;;3.10;;
2784;SDS011;57944;48.722;9.316;2023-08-31T10:38:24;4.93;;;2.90;;
2784;SDS011;57944;48.722;9.316;2023-08-31T10:41:01;12.17;;;3.50;;
2784;SDS011;57944;48.722;9.316;2023-08-31T10:43:49;7.37;;;3.07;;
2784;SDS011;57944;48.722;9.316;2023-08-31T10:46:27;6.87;;;2.90;;
2784;SDS011;57944;48.722;9.316;2023-08-31T10:49:13;4.83;;;2.90;;
2784;SDS011;57944;48.722;9.316;2023-08-31T10:51:45;6.67;;;2.80;;
2784;SDS011;57944;48.722;9.316;2023-08-31T10:54:21;11.03;;;2.97;;
2784;SDS011;57944;48.722;9.316;2023-08-31T10:56:53;4.20;;;2.70;;
2784;SDS011;57944;48.722;9.316;2023-08-31T10:59:46;4.23;;;2.53;;
2784;SDS011;57944;48.722;9.316;2023-08-31T11:02:28;6.77;;;2.77;;
2784;SDS011;57944;48.722;9.316;2023-08-31T11:05:06;6.50;;;3.17;;
2784;SDS011;57944;48.722;9.316;2023-08-31T11:07:38;8.30;;;2.93;;
2784;SDS011;57944;48.722;9.316;2023-08-31T11:10:10;4.33;;;2.47;;
2784;SDS011;57944;48.722;9.316;2023-08-31T11:12:44;8.40;;;2.90;;
2784;SDS011;57944;48.722;9.316;2023-08-31T11:15:16;9.37;;;3.60;;
2784;SDS011;57944;48.722;9.316;2023-08-31T11:17:49;5.47;;;2.80;;
2784;SDS011;57944;48.722;9.316;2023-08-31T11:20:24;5.93;;;3.80;;
2784;SDS011;57944;48.722;9.316;2023-08-31T11:22:57;7.73;;;3.30;;
2784;SDS011;57944;48.722;9.316;2023-08-31T11:25:30;7.80;;;3.10;;
2784;SDS011;57944;48.722;9.316;2023-08-31T11:28:01;8.57;;;3.50;;
2784;SDS011;57944;48.722;9.316;2023-08-31T11:30:36;13.47;;;3.30;;
2784;SDS011;57944;48.722;9.316;2023-08-31T11:33:07;6.87;;;3.00;;
2784;SDS011;57944;48.722;9.316;2023-08-31T11:35:43;9.23;;;2.77;;
2784;SDS011;57944;48.722;9.316;2023-08-31T11:38:14;7.57;;;3.47;;
2784;SDS011;57944;48.722;9.316;2023-08-31T11:40:45;9.37;;;3.33;;
2784;SDS011;57944;48.722;9.316;2023-08-31T11:43:18;8.67;;;2.47;;
2784;SDS011;57944;48.722;9.316;2023-08-31T11:45:49;4.83;;;2.67;;
2784;SDS011;57944;48.722;9.316;2023-08-31T11:48:20;4.97;;;2.77;;
2784;SDS011;57944;48.722;9.316;2023-08-31T11:50:54;8.10;;;3.50;;
2784;SDS011;57944;48.722;9.316;2023-08-31T11:53:25;5.03;;;2.70;;
2784;SDS011;57944;48.722;9.316;2023-08-31T11:55:56;7.30;;;3.60;;
2784;SDS011;57944;48.722;9.316;2023-08-31T11:58:30;5.43;;;2.93;;
2784;SDS011;57944;48.722;9.316;2023-08-31T12:01:01;6.70;;;3.07;;
2784;SDS011;57944;48.722;9.316;2023-08-31T12:03:41;5.10;;;2.47;;
2784;SDS011;57944;48.722;9.316;2023-08-31T12:06:18;5.30;;;3.10;;
2784;SDS011;57944;48.722;9.316;2023-08-31T12:08:49;13.03;;;2.67;;
2784;SDS011;57944;48.722;9.316;2023-08-31T12:11:19;5.43;;;3.20;;
2784;SDS011;57944;48.722;9.316;2023-08-31T12:13:50;10.80;;;3.77;;
2784;SDS011;57944;48.722;9.316;2023-08-31T12:16:21;5.33;;;2.43;;
2784;SDS011;57944;48.722;9.316;2023-08-31T12:18:51;5.17;;;2.90;;
2784;SDS011;57944;48.722;9.316;2023-08-31T12:21:30;10.23;;;3.30;;
2784;SDS011;57944;48.722;9.316;2023-08-31T12:24:01;13.27;;;3.33;;
2784;SDS011;57944;48.722;9.316;2023-08-31T12:26:34;8.50;;;2.93;;
2784;SDS011;57944;48.722;9.316;2023-08-31T12:29:04;6.70;;;3.30;;
2784;SDS011;57944;48.722;9.316;2023-08-31T12:31:35;6.63;;;3.50;;
2784;SDS011;57944;48.722;9.316;2023-08-31T12:34:06;9.67;;;3.50;;
2784;SDS011;57944;48.722;9.316;2023-08-31T12:36:39;4.80;;;2.77;;
2784;SDS011;57944;48.722;9.316;2023-08-31T12:39:10;5.30;;;3.53;;
2784;SDS011;57944;48.722;9.316;2023-08-31T12:41:41;6.50;;;2.83;;
2784;SDS011;57944;48.722;9.316;2023-08-31T12:44:11;6.90;;;2.73;;
2784;SDS011;57944;48.722;9.316;2023-08-31T12:46:42;4.20;;;2.13;;
2784;SDS011;57944;48.722;9.316;2023-08-31T12:49:12;6.93;;;3.30;;
2784;SDS011;57944;48.722;9.316;2023-08-31T12:51:46;6.50;;;2.80;;
2784;SDS011;57944;48.722;9.316;2023-08-31T12:54:17;8.60;;;2.73;;
2784;SDS011;57944;48.722;9.316;2023-08-31T12:56:48;4.80;;;2.37;;
2784;SDS011;57944;48.722;9.316;2023-08-31T12:59:18;5.80;;;3.20;;
2784;SDS011;57944;48.722;9.316;2023-08-31T13:01:49;3.87;;;2.20;;
2784;SDS011;57944;48.722;9.316;2023-08-31T13:04:20;5.97;;;2.90;;
2784;SDS011;57944;48.722;9.316;2023-08-31T13:06:54;5.57;;;3.17;;
2784;SDS011;57944;48.722;9.316;2023-08-31T13:09:24;6.63;;;2.73;;
2784;SDS011;57944;48.722;9.316;2023-08-31T13:11:55;6.63;;;2.63;;
2784;SDS011;57944;48.722;9.316;2023-08-31T13:14:25;7.60;;;3.03;;
2784;SDS011;57944;48.722;9.316;2023-08-31T13:16:56;8.63;;;3.07;;
2784;SDS011;57944;48.722;9.316;2023-08-31T13:19:26;5.43;;;2.53;;
2784;SDS011;57944;48.722;9.316;2023-08-31T13:22:00;5.87;;;2.87;;
2784;SDS011;57944;48.722;9.316;2023-08-31T13:24:30;8.10;;;2.80;;
2784;SDS011;57944;48.722;9.316;2023-08-31T13:27:01;5.30;;;3.30;;
2784;SDS011;57944;48.722;9.316;2023-08-31T13:29:32;10.33;;;3.63;;
2784;SDS011;57944;48.722;9.316;2023-08-31T13:32:04;9.03;;;2.77;;
2784;SDS011;57944;48.722;9.316;2023-08-31T13:34:35;37.07;;;8.20;;
2784;SDS011;57944;48.722;9.316;2023-08-31T13:37:08;7.70;;;2.70;;
2784;SDS011;57944;48.722;9.316;2023-08-31T13:39:39;4.60;;;2.80;;
2784;SDS011;57944;48.722;9.316;2023-08-31T13:42:10;5.10;;;2.80;;
2784;SDS011;57944;48.722;9.316;2023-08-31T13:44:41;5.20;;;2.83;;
2784;SDS011;57944;48.722;9.316;2023-08-31T13:47:11;5.43;;;3.13;;
2784;SDS011;57944;48.722;9.316;2023-08-31T13:49:42;5.70;;;3.03;;
2784;SDS011;57944;48.722;9.316;2023-08-31T13:52:15;6.20;;;3.13;;
2784;SDS011;57944;48.722;9.316;2023-08-31T13:54:47;7.43;;;2.23;;
2784;SDS011;57944;48.722;9.316;2023-08-31T13:57:18;4.97;;;2.50;;
2784;SDS011;57944;48.722;9.316;2023-08-31T13:59:48;10.13;;;2.67;;
2784;SDS011;57944;48.722;9.316;2023-08-31T14:02:19;5.87;;;2.73;;
2784;SDS011;57944;48.722;9.316;2023-08-31T14:04:50;6.00;;;2.60;;
2784;SDS011;57944;48.722;9.316;2023-08-31T14:07:23;7.13;;;3.00;;
2784;SDS011;57944;48.722;9.316;2023-08-31T14:09:53;6.60;;;2.87;;
2784;SDS011;57944;48.722;9.316;2023-08-31T14:12:24;5.27;;;2.40;;
2784;SDS011;57944;48.722;9.316;2023-08-31T14:14:54;7.97;;;3.10;;
2784;SDS011;57944;48.722;9.316;2023-08-31T14:17:27;5.23;;;2.80;;
2784;SDS011;57944;48.722;9.316;2023-08-31T14:19:58;8.80;;;2.70;;
2784;SDS011;57944;48.722;9.316;2023-08-31T14:22:35;7.60;;;2.73;;
2784;SDS011;57944;48.722;9.316;2023-08-31T14:25:09;9.50;;;3.37;;
2784;SDS011;57944;48.722;9.316;2023-08-31T14:27:40;7.87;;;3.03;;
2784;SDS011;57944;48.722;9.316;2023-08-31T14:30:11;7.47;;;3.63;;
2784;SDS011;57944;48.722;9.316;2023-08-31T14:32:41;6.53;;;3.00;;
2784;SDS011;57944;48.722;9.316;2023-08-31T14:35:12;5.33;;;3.07;;
2784;SDS011;57944;48.722;9.316;2023-08-31T14:37:45;6.47;;;2.73;;
2784;SDS011;57944;48.722;9.316;2023-08-31T14:40:16;6.80;;;3.00;;
2784;SDS011;57944;48.722;9.316;2023-08-31T14:42:47;4.60;;;2.60;;
2784;SDS011;57944;48.722;9.316;2023-08-31T14:45:17;4.70;;;2.37;;
2784;SDS011;57944;48.722;9.316;2023-08-31T14:47:48;14.30;;;3.50;;
2784;SDS011;57944;48.722;9.316;2023-08-31T14:50:18;10.20;;;3.37;;
2784;SDS011;57944;48.722;9.316;2023-08-31T14:52:52;4.90;;;2.70;;
2784;SDS011;57944;48.722;9.316;2023-08-31T14:55:22;9.33;;;3.07;;
2784;SDS011;57944;48.722;9.316;2023-08-31T14:57:54;5.27;;;2.57;;
2784;SDS011;57944;48.722;9.316;2023-08-31T15:00:25;5.80;;;2.60;;
2784;SDS011;57944;48.722;9.316;2023-08-31T15:02:55;4.70;;;2.60;;
2784;SDS011;57944;48.722;9.316;2023-08-31T15:05:26;7.03;;;2.97;;
2784;SDS011;57944;48.722;9.316;2023-08-31T15:07:59;4.43;;;3.23;;
2784;SDS011;57944;48.722;9.316;2023-08-31T15:10:30;11.07;;;3.60;;
2784;SDS011;57944;48.722;9.316;2023-08-31T15:13:01;5.73;;;3.20;;
2784;SDS011;57944;48.722;9.316;2023-08-31T15:15:32;5.07;;;2.60;;
2784;SDS011;57944;48.722;9.316;2023-08-31T15:18:03;6.63;;;2.70;;
2784;SDS011;57944;48.722;9.316;2023-08-31T15:20:34;8.50;;;3.77;;
2784;SDS011;57944;48.722;9.316;2023-08-31T15:23:11;6.23;;;2.63;;
2784;SDS011;57944;48.722;9.316;2023-08-31T15:25:41;8.13;;;2.70;;
2784;SDS011;57944;48.722;9.316;2023-08-31T15:28:12;6.27;;;3.07;;
2784;SDS011;57944;48.722;9.316;2023-08-31T15:30:43;10.10;;;3.50;;